createdAt,value
2022-10-16T00:00:43.707Z,1006.53
2022-10-16T00:01:44.091Z,1006.51
2022-10-16T00:02:44.369Z,1006.53
2022-10-16T00:03:44.607Z,1006.66
2022-10-16T00:04:44.938Z,1006.64
2022-10-16T00:05:45.266Z,1006.63
2022-10-16T00:06:45.608Z,1006.61
2022-10-16T00:07:45.936Z,1006.63
2022-10-16T00:08:46.239Z,1006.59
2022-10-16T00:09:46.581Z,1006.64
2022-10-16T00:10:46.909Z,1006.68
2022-10-16T00:11:47.340Z,1006.69
2022-10-16T00:12:47.554Z,1006.69
2022-10-16T00:13:47.862Z,1006.65
2022-10-16T00:14:48.180Z,1006.65
2022-10-16T00:15:48.503Z,1006.65
2022-10-16T00:16:48.853Z,1006.64
2022-10-16T00:17:49.162Z,1006.65
2022-10-16T00:18:49.482Z,1006.68
2022-10-16T00:19:49.803Z,1006.63
2022-10-16T00:20:50.136Z,1006.68
2022-10-16T00:21:50.473Z,1006.75
2022-10-16T00:22:50.783Z,1006.83
2022-10-16T00:23:51.106Z,1006.79
2022-10-16T00:24:51.433Z,1006.84
2022-10-16T00:25:51.772Z,1006.86
2022-10-16T00:26:52.106Z,1006.91
2022-10-16T00:27:52.446Z,1006.88
2022-10-16T00:28:52.813Z,1006.83
2022-10-16T00:29:53.099Z,1006.79
2022-10-16T00:30:53.337Z,1006.84
2022-10-16T00:31:53.676Z,1006.83
2022-10-16T00:32:53.998Z,1006.82
2022-10-16T00:33:54.328Z,1006.83
2022-10-16T00:34:54.659Z,1006.82
2022-10-16T00:35:54.984Z,1006.86
2022-10-16T00:36:55.318Z,1006.78
2022-10-16T00:37:55.629Z,1006.80
2022-10-16T00:38:56.069Z,1006.81
2022-10-16T00:39:56.295Z,1006.81
2022-10-16T00:40:56.602Z,1006.81
2022-10-16T00:41:56.949Z,1006.88
2022-10-16T00:42:57.262Z,1006.87
2022-10-16T00:43:57.579Z,1006.86
2022-10-16T00:44:57.906Z,1006.87
2022-10-16T00:45:58.212Z,1006.84
2022-10-16T00:46:58.557Z,1006.84
2022-10-16T00:47:58.899Z,1006.86
2022-10-16T00:48:59.214Z,1006.85
2022-10-16T00:49:59.554Z,1006.87
2022-10-16T00:50:59.853Z,1006.85
2022-10-16T00:52:00.179Z,1006.84
2022-10-16T00:53:00.504Z,1006.87
2022-10-16T00:54:00.818Z,1006.87
2022-10-16T00:55:01.165Z,1006.94
2022-10-16T00:56:01.488Z,1006.98
2022-10-16T00:57:01.876Z,1007.01
2022-10-16T00:58:02.086Z,1006.99
2022-10-16T00:59:02.415Z,1007.08
2022-10-16T01:00:02.749Z,1007.02
2022-10-16T01:01:03.125Z,1007.01
2022-10-16T01:02:03.386Z,1007.00
2022-10-16T01:03:03.717Z,1007.00
2022-10-16T01:04:04.027Z,1007.00
2022-10-16T01:05:04.354Z,1006.95
2022-10-16T01:06:04.670Z,1007.00
2022-10-16T01:07:05.029Z,1006.98
2022-10-16T01:08:05.222Z,1006.93
2022-10-16T01:09:05.542Z,1006.93
2022-10-16T01:10:05.880Z,1006.89
2022-10-16T01:11:06.231Z,1006.95
2022-10-16T01:12:06.453Z,1007.03
2022-10-16T01:13:06.771Z,1007.02
2022-10-16T01:14:07.099Z,1006.99
2022-10-16T01:15:07.416Z,1007.05
2022-10-16T01:16:07.747Z,1007.04
2022-10-16T01:17:08.127Z,1007.00
2022-10-16T01:18:08.336Z,1007.05
2022-10-16T01:19:08.663Z,1007.08
2022-10-16T01:20:08.973Z,1007.04
2022-10-16T01:21:09.314Z,1007.11
2022-10-16T01:22:09.616Z,1007.15
2022-10-16T01:23:09.942Z,1007.21
2022-10-16T01:24:10.247Z,1007.21
2022-10-16T01:25:10.565Z,1007.23
2022-10-16T01:26:10.907Z,1007.17
2022-10-16T01:27:11.225Z,1007.20
2022-10-16T01:28:11.537Z,1007.17
2022-10-16T01:29:11.881Z,1007.16
2022-10-16T01:30:12.196Z,1007.09
2022-10-16T01:31:12.536Z,1007.05
2022-10-16T01:32:12.889Z,1007.12
2022-10-16T01:33:13.072Z,1007.15
2022-10-16T01:34:13.413Z,1007.16
2022-10-16T01:35:13.731Z,1007.12
2022-10-16T01:36:14.059Z,1007.10
2022-10-16T01:37:14.382Z,1007.11
2022-10-16T01:38:14.701Z,1007.15
2022-10-16T01:39:15.023Z,1007.13
2022-10-16T01:40:15.350Z,1007.18
2022-10-16T01:41:15.690Z,1007.14
2022-10-16T01:42:16.011Z,1007.21
2022-10-16T01:43:16.375Z,1007.17
2022-10-16T01:44:16.613Z,1007.15
2022-10-16T01:45:16.802Z,1007.21
2022-10-16T01:46:17.133Z,1007.27
2022-10-16T01:47:17.456Z,1007.25
2022-10-16T01:48:17.776Z,1007.27
2022-10-16T01:49:18.095Z,1007.26
2022-10-16T01:50:18.423Z,1007.29
2022-10-16T01:51:18.776Z,1007.29
2022-10-16T01:52:19.109Z,1007.29
2022-10-16T01:53:19.437Z,1007.22
2022-10-16T01:54:19.752Z,1007.27
2022-10-16T01:55:20.066Z,1007.25
2022-10-16T01:56:20.406Z,1007.24
2022-10-16T01:57:20.718Z,1007.28
2022-10-16T01:58:21.028Z,1007.30
2022-10-16T01:59:21.346Z,1007.32
2022-10-16T02:00:21.667Z,1007.31
2022-10-16T02:01:21.994Z,1007.30
2022-10-16T02:02:22.289Z,1007.35
2022-10-16T02:03:22.639Z,1007.35
2022-10-16T02:04:22.970Z,1007.35
2022-10-16T02:05:23.301Z,1007.29
2022-10-16T02:06:23.640Z,1007.35
2022-10-16T02:07:23.971Z,1007.40
2022-10-16T02:08:24.281Z,1007.40
2022-10-16T02:09:24.611Z,1007.41
2022-10-16T02:10:25.002Z,1007.49
2022-10-16T02:11:25.192Z,1007.43
2022-10-16T02:12:25.809Z,1007.42
2022-10-16T02:13:25.854Z,1007.48
2022-10-16T02:14:26.193Z,1007.41
2022-10-16T02:15:26.502Z,1007.44
2022-10-16T02:16:26.858Z,1007.53
2022-10-16T02:17:27.044Z,1007.45
2022-10-16T02:18:27.389Z,1007.53
2022-10-16T02:19:27.742Z,1007.50
2022-10-16T02:20:28.033Z,1007.46
2022-10-16T02:21:28.374Z,1007.43
2022-10-16T02:22:29.046Z,1007.38
2022-10-16T02:23:29.039Z,1007.45
2022-10-16T02:24:29.356Z,1007.46
2022-10-16T02:25:29.707Z,1007.43
2022-10-16T02:26:30.042Z,1007.47
2022-10-16T02:27:30.366Z,1007.48
2022-10-16T02:28:30.798Z,1007.51
2022-10-16T02:29:31.006Z,1007.51
2022-10-16T02:30:31.323Z,1007.56
2022-10-16T02:31:31.659Z,1007.55
2022-10-16T02:32:31.980Z,1007.51
2022-10-16T02:33:32.318Z,1007.55
2022-10-16T02:34:32.635Z,1007.58
2022-10-16T02:35:32.971Z,1007.57
2022-10-16T02:36:33.291Z,1007.55
2022-10-16T02:37:33.631Z,1007.54
2022-10-16T02:38:33.961Z,1007.49
2022-10-16T02:39:34.273Z,1007.48
2022-10-16T02:40:34.604Z,1007.54
2022-10-16T02:41:34.916Z,1007.57
2022-10-16T02:42:35.231Z,1007.58
2022-10-16T02:43:35.558Z,1007.63
2022-10-16T02:44:35.864Z,1007.63
2022-10-16T02:45:36.213Z,1007.67
2022-10-16T02:46:36.531Z,1007.65
2022-10-16T02:47:36.845Z,1007.68
2022-10-16T02:48:37.156Z,1007.67
2022-10-16T02:49:37.494Z,1007.66
2022-10-16T02:50:37.835Z,1007.64
2022-10-16T02:51:38.168Z,1007.63
2022-10-16T02:52:38.508Z,1007.56
2022-10-16T02:53:38.816Z,1007.57
2022-10-16T02:54:39.125Z,1007.58
2022-10-16T02:55:39.479Z,1007.53
2022-10-16T02:56:39.789Z,1007.62
2022-10-16T02:57:40.112Z,1007.66
2022-10-16T02:58:40.426Z,1007.76
2022-10-16T02:59:40.749Z,1007.80
2022-10-16T03:00:41.110Z,1007.76
2022-10-16T03:01:41.320Z,1007.80
2022-10-16T03:02:41.641Z,1007.80
2022-10-16T03:03:41.970Z,1007.78
2022-10-16T03:04:42.279Z,1007.81
2022-10-16T03:05:42.642Z,1007.78
2022-10-16T03:06:42.950Z,1007.73
2022-10-16T03:07:43.270Z,1007.79
2022-10-16T03:08:43.583Z,1007.81
2022-10-16T03:09:43.921Z,1007.84
2022-10-16T03:10:44.244Z,1007.84
2022-10-16T03:11:44.571Z,1007.81
2022-10-16T03:12:44.884Z,1007.76
2022-10-16T03:13:45.203Z,1007.83
2022-10-16T03:14:45.532Z,1007.81
2022-10-16T03:15:45.844Z,1007.81
2022-10-16T03:16:46.164Z,1007.82
2022-10-16T03:17:46.487Z,1007.87
2022-10-16T03:18:46.806Z,1007.92
2022-10-16T03:19:47.144Z,1007.86
2022-10-16T03:20:47.447Z,1007.92
2022-10-16T03:21:47.775Z,1007.88
2022-10-16T03:22:48.097Z,1007.93
2022-10-16T03:23:48.406Z,1007.87
2022-10-16T03:24:48.756Z,1007.91
2022-10-16T03:25:49.086Z,1007.87
2022-10-16T03:26:49.400Z,1007.94
2022-10-16T03:27:49.728Z,1007.90
2022-10-16T03:28:50.181Z,1007.99
2022-10-16T03:29:50.397Z,1007.90
2022-10-16T03:30:50.721Z,1007.94
2022-10-16T03:31:51.049Z,1007.94
2022-10-16T03:32:51.374Z,1007.96
2022-10-16T03:33:51.700Z,1007.92
2022-10-16T03:34:52.023Z,1007.99
2022-10-16T03:35:52.349Z,1008.06
2022-10-16T03:36:52.687Z,1008.03
2022-10-16T03:38:00.811Z,1008.05
2022-10-16T03:38:53.254Z,1008.08
2022-10-16T03:39:53.952Z,1008.07
2022-10-16T03:40:53.810Z,1008.08
2022-10-16T03:41:54.139Z,1008.06
2022-10-16T03:42:54.464Z,1008.12
2022-10-16T03:43:54.793Z,1008.08
2022-10-16T03:44:55.102Z,1008.05
2022-10-16T03:45:55.414Z,1008.08
2022-10-16T03:46:55.735Z,1008.06
2022-10-16T03:47:56.065Z,1008.10
2022-10-16T03:48:56.407Z,1008.07
2022-10-16T03:49:56.737Z,1008.06
2022-10-16T03:50:57.035Z,1008.05
2022-10-16T03:51:57.356Z,1008.17
2022-10-16T03:52:57.675Z,1008.15
2022-10-16T03:53:58.000Z,1008.15
2022-10-16T03:54:58.308Z,1008.13
2022-10-16T03:55:58.637Z,1008.20
2022-10-16T03:56:58.940Z,1008.18
2022-10-16T03:57:59.261Z,1008.22
2022-10-16T03:58:59.590Z,1008.21
2022-10-16T03:59:59.908Z,1008.22
2022-10-16T04:01:00.282Z,1008.28
2022-10-16T04:02:00.496Z,1008.32
2022-10-16T04:03:00.809Z,1008.28
2022-10-16T04:04:01.141Z,1008.28
2022-10-16T04:05:01.451Z,1008.30
2022-10-16T04:06:01.785Z,1008.31
2022-10-16T04:07:02.113Z,1008.27
2022-10-16T04:08:02.433Z,1008.35
2022-10-16T04:09:02.792Z,1008.39
2022-10-16T04:10:03.052Z,1008.29
2022-10-16T04:11:03.267Z,1008.37
2022-10-16T04:12:03.584Z,1008.30
2022-10-16T04:13:03.902Z,1008.35
2022-10-16T04:14:04.256Z,1008.25
2022-10-16T04:15:04.563Z,1008.31
2022-10-16T04:16:04.882Z,1008.27
2022-10-16T04:17:05.199Z,1008.26
2022-10-16T04:18:05.515Z,1008.33
2022-10-16T04:19:05.878Z,1008.31
2022-10-16T04:20:06.055Z,1008.35
2022-10-16T04:21:06.379Z,1008.32
2022-10-16T04:22:06.705Z,1008.37
2022-10-16T04:23:07.900Z,1008.41
2022-10-16T04:24:07.285Z,1008.39
2022-10-16T04:25:07.586Z,1008.39
2022-10-16T04:26:07.918Z,1008.44
2022-10-16T04:27:08.237Z,1008.45
2022-10-16T04:28:08.560Z,1008.45
2022-10-16T04:29:08.886Z,1008.49
2022-10-16T04:30:09.199Z,1008.43
2022-10-16T04:31:09.529Z,1008.43
2022-10-16T04:32:09.871Z,1008.46
2022-10-16T04:33:10.174Z,1008.46
2022-10-16T04:34:10.530Z,1008.48
2022-10-16T04:35:10.989Z,1008.59
2022-10-16T04:36:11.173Z,1008.56
2022-10-16T04:37:11.518Z,1008.55
2022-10-16T04:38:11.867Z,1008.45
2022-10-16T04:39:12.081Z,1008.51
2022-10-16T04:40:12.412Z,1008.54
2022-10-16T04:41:12.764Z,1008.56
2022-10-16T04:42:13.082Z,1008.52
2022-10-16T04:43:13.414Z,1008.55
2022-10-16T04:44:13.745Z,1008.57
2022-10-16T04:45:16.460Z,1008.62
2022-10-16T04:46:14.318Z,1008.62
2022-10-16T04:47:14.634Z,1008.59
2022-10-16T04:48:14.955Z,1008.60
2022-10-16T04:49:15.287Z,1008.61
2022-10-16T04:50:15.617Z,1008.58
2022-10-16T04:51:15.935Z,1008.69
2022-10-16T04:52:16.257Z,1008.65
2022-10-16T04:53:16.626Z,1008.71
2022-10-16T04:54:16.843Z,1008.74
2022-10-16T04:55:17.175Z,1008.68
2022-10-16T04:56:17.501Z,1008.66
2022-10-16T04:57:17.878Z,1008.66
2022-10-16T04:58:18.099Z,1008.63
2022-10-16T04:59:18.439Z,1008.67
2022-10-16T05:00:18.776Z,1008.69
2022-10-16T05:01:19.111Z,1008.69
2022-10-16T05:02:19.504Z,1008.71
2022-10-16T05:03:19.892Z,1008.72
2022-10-16T05:04:20.000Z,1008.71
2022-10-16T05:05:20.353Z,1008.69
2022-10-16T05:06:21.552Z,1008.71
2022-10-16T05:07:20.838Z,1008.66
2022-10-16T05:08:21.062Z,1008.61
2022-10-16T05:09:21.436Z,1008.62
2022-10-16T05:10:21.636Z,1008.66
2022-10-16T05:11:22.010Z,1008.66
2022-10-16T05:12:22.254Z,1008.64
2022-10-16T05:13:22.604Z,1008.63
2022-10-16T05:14:22.864Z,1008.62
2022-10-16T05:15:23.093Z,1008.63
2022-10-16T05:16:23.436Z,1008.66
2022-10-16T05:17:24.016Z,1008.64
2022-10-16T05:18:24.016Z,1008.66
2022-10-16T05:19:28.366Z,1008.68
2022-10-16T05:20:24.534Z,1008.67
2022-10-16T05:21:24.876Z,1008.79
2022-10-16T05:22:25.091Z,1008.80
2022-10-16T05:23:25.443Z,1008.88
2022-10-16T05:24:25.673Z,1009.01
2022-10-16T05:25:25.907Z,1008.97
2022-10-16T05:26:26.120Z,1008.95
2022-10-16T05:27:26.733Z,1008.96
2022-10-16T05:28:26.829Z,1008.96
2022-10-16T05:29:27.021Z,1008.98
2022-10-16T05:30:27.362Z,1008.90
2022-10-16T05:31:27.827Z,1008.96
2022-10-16T05:32:28.106Z,1008.92
2022-10-16T05:33:28.349Z,1008.91
2022-10-16T05:34:28.592Z,1008.97
2022-10-16T05:35:28.821Z,1008.90
2022-10-16T05:36:30.012Z,1008.99
2022-10-16T05:37:29.529Z,1009.00
2022-10-16T05:38:29.622Z,1008.98
2022-10-16T05:39:29.962Z,1008.98
2022-10-16T05:40:30.224Z,1009.00
2022-10-16T05:41:30.437Z,1009.00
2022-10-16T05:42:30.803Z,1009.00
2022-10-16T05:43:31.077Z,1009.04
2022-10-16T05:44:31.344Z,1009.13
2022-10-16T05:45:31.584Z,1009.19
2022-10-16T05:46:31.809Z,1009.16
2022-10-16T05:47:32.036Z,1009.17
2022-10-16T05:48:32.297Z,1009.17
2022-10-16T05:49:32.538Z,1009.22
2022-10-16T05:50:32.793Z,1009.16
2022-10-16T05:51:33.074Z,1009.24
2022-10-16T05:52:33.283Z,1009.26
2022-10-16T05:53:33.564Z,1009.28
2022-10-16T05:54:33.859Z,1009.30
2022-10-16T05:55:34.106Z,1009.33
2022-10-16T05:56:34.376Z,1009.32
2022-10-16T05:57:34.606Z,1009.33
2022-10-16T05:58:34.839Z,1009.42
2022-10-16T05:59:35.182Z,1009.44
2022-10-16T06:00:35.553Z,1009.41
2022-10-16T06:01:35.799Z,1009.35
2022-10-16T06:02:36.048Z,1009.34
2022-10-16T06:03:36.312Z,1009.24
2022-10-16T06:04:36.549Z,1009.22
2022-10-16T06:05:36.771Z,1009.25
2022-10-16T06:06:37.130Z,1009.24
2022-10-16T06:07:37.981Z,1009.23
2022-10-16T06:08:37.632Z,1009.27
2022-10-16T06:09:37.903Z,1009.24
2022-10-16T06:10:38.133Z,1009.26
2022-10-16T06:11:38.491Z,1009.28
2022-10-16T06:12:38.715Z,1009.29
2022-10-16T06:13:39.074Z,1009.31
2022-10-16T06:14:39.368Z,1009.39
2022-10-16T06:15:39.575Z,1009.41
2022-10-16T06:16:39.785Z,1009.43
2022-10-16T06:17:40.143Z,1009.45
2022-10-16T06:18:40.376Z,1009.50
2022-10-16T06:19:40.598Z,1009.53
2022-10-16T06:20:40.946Z,1009.49
2022-10-16T06:21:41.316Z,1009.44
2022-10-16T06:22:41.566Z,1009.48
2022-10-16T06:23:41.859Z,1009.53
2022-10-16T06:24:42.117Z,1009.54
2022-10-16T06:25:42.376Z,1009.58
2022-10-16T06:26:42.625Z,1009.63
2022-10-16T06:27:42.856Z,1009.60
2022-10-16T06:28:43.226Z,1009.65
2022-10-16T06:29:43.362Z,1009.58
2022-10-16T06:30:43.677Z,1009.55
2022-10-16T06:31:43.937Z,1009.58
2022-10-16T06:32:44.193Z,1009.57
2022-10-16T06:33:44.418Z,1009.63
2022-10-16T06:34:44.648Z,1009.62
2022-10-16T06:35:44.995Z,1009.63
2022-10-16T06:36:45.341Z,1009.62
2022-10-16T06:37:45.589Z,1009.64
2022-10-16T06:38:45.863Z,1009.62
2022-10-16T06:39:46.120Z,1009.66
2022-10-16T06:40:46.412Z,1009.61
2022-10-16T06:41:46.721Z,1009.66
2022-10-16T06:42:46.947Z,1009.68
2022-10-16T06:43:47.332Z,1009.66
2022-10-16T06:44:47.599Z,1009.56
2022-10-16T06:45:47.865Z,1009.55
2022-10-16T06:46:48.104Z,1009.53
2022-10-16T06:47:48.363Z,1009.63
2022-10-16T06:48:48.625Z,1009.59
2022-10-16T06:49:51.877Z,1009.65
2022-10-16T06:50:50.245Z,1009.66
2022-10-16T06:51:49.436Z,1009.67
2022-10-16T06:52:49.676Z,1009.68
2022-10-16T06:54:02.482Z,1009.66
2022-10-16T06:54:51.260Z,1009.68
2022-10-16T06:55:50.559Z,1009.75
2022-10-16T06:56:50.800Z,1009.75
2022-10-16T06:57:51.061Z,1009.75
2022-10-16T06:58:51.318Z,1009.87
2022-10-16T06:59:55.245Z,1009.86
2022-10-16T07:00:51.860Z,1009.84
2022-10-16T07:01:52.120Z,1009.81
2022-10-16T07:02:52.360Z,1009.84
2022-10-16T07:03:52.628Z,1009.85
2022-10-16T07:04:52.882Z,1009.83
2022-10-16T07:05:53.151Z,1009.90
2022-10-16T07:06:53.422Z,1009.81
2022-10-16T07:07:53.662Z,1009.87
2022-10-16T07:08:53.926Z,1009.86
2022-10-16T07:09:54.189Z,1009.89
2022-10-16T07:10:54.469Z,1009.88
2022-10-16T07:11:54.716Z,1009.90
2022-10-16T07:12:54.977Z,1009.95
2022-10-16T07:13:56.538Z,1009.90
2022-10-16T07:14:55.526Z,1009.96
2022-10-16T07:15:55.769Z,1009.96
2022-10-16T07:16:56.014Z,1009.99
2022-10-16T07:17:56.277Z,1010.01
2022-10-16T07:18:56.558Z,1010.01
2022-10-16T07:19:56.840Z,1010.08
2022-10-16T07:20:57.077Z,1010.06
2022-10-16T07:21:58.090Z,1010.05
2022-10-16T07:22:57.687Z,1010.07
2022-10-16T07:23:57.988Z,1010.10
2022-10-16T07:24:58.238Z,1010.17
2022-10-16T07:25:58.487Z,1010.14
2022-10-16T07:26:58.737Z,1010.12
2022-10-16T07:27:59.003Z,1010.19
2022-10-16T07:28:59.324Z,1010.20
2022-10-16T07:30:01.559Z,1010.22
2022-10-16T07:30:59.891Z,1010.19
2022-10-16T07:32:00.138Z,1010.11
2022-10-16T07:33:00.399Z,1010.11
2022-10-16T07:34:00.672Z,1010.11
2022-10-16T07:35:00.936Z,1010.11
2022-10-16T07:36:01.224Z,1010.09
2022-10-16T07:37:01.503Z,1010.19
2022-10-16T07:38:01.754Z,1010.22
2022-10-16T07:39:01.994Z,1010.29
2022-10-16T07:40:02.274Z,1010.33
2022-10-16T07:41:02.525Z,1010.27
2022-10-16T07:42:02.793Z,1010.33
2022-10-16T07:43:03.110Z,1010.35
2022-10-16T07:44:03.376Z,1010.36
2022-10-16T07:45:03.636Z,1010.34
2022-10-16T07:46:06.344Z,1010.37
2022-10-16T07:47:04.144Z,1010.41
2022-10-16T07:48:04.420Z,1010.42
2022-10-16T07:49:04.714Z,1010.41
2022-10-16T07:50:05.066Z,1010.38
2022-10-16T07:51:05.229Z,1010.42
2022-10-16T07:52:05.507Z,1010.40
2022-10-16T07:53:05.761Z,1010.35
2022-10-16T07:54:06.031Z,1010.31
2022-10-16T07:55:06.284Z,1010.28
2022-10-16T07:56:06.542Z,1010.25
2022-10-16T07:57:06.812Z,1010.21
2022-10-16T07:58:07.061Z,1010.23
2022-10-16T07:59:07.455Z,1010.30
2022-10-16T08:00:07.533Z,1010.34
2022-10-16T08:01:07.862Z,1010.33
2022-10-16T08:02:08.032Z,1010.29
2022-10-16T08:03:08.286Z,1010.29
2022-10-16T08:04:08.550Z,1010.35
2022-10-16T08:05:08.814Z,1010.38
2022-10-16T08:06:09.095Z,1010.33
2022-10-16T08:07:09.353Z,1010.32
2022-10-16T08:08:09.616Z,1010.35
2022-10-16T08:09:09.896Z,1010.30
2022-10-16T08:10:10.169Z,1010.32
2022-10-16T08:11:10.420Z,1010.32
2022-10-16T08:12:10.726Z,1010.29
2022-10-16T08:13:11.046Z,1010.33
2022-10-16T08:14:11.368Z,1010.29
2022-10-16T08:15:11.539Z,1010.26
2022-10-16T08:16:11.799Z,1010.28
2022-10-16T08:17:12.088Z,1010.24
2022-10-16T08:18:12.340Z,1010.36
2022-10-16T08:19:12.609Z,1010.32
2022-10-16T08:20:12.890Z,1010.33
2022-10-16T08:21:16.850Z,1010.36
2022-10-16T08:23:13.741Z,1010.42
2022-10-16T08:24:14.004Z,1010.46
2022-10-16T08:25:14.391Z,1010.41
2022-10-16T08:26:14.594Z,1010.41
2022-10-16T08:27:14.843Z,1010.37
2022-10-16T08:28:15.189Z,1010.36
2022-10-16T08:29:15.351Z,1010.30
2022-10-16T08:30:15.584Z,1010.31
2022-10-16T08:32:16.175Z,1010.37
2022-10-16T08:33:16.434Z,1010.41
2022-10-16T08:34:16.715Z,1010.50
2022-10-16T08:35:16.967Z,1010.45
2022-10-16T08:36:17.217Z,1010.49
2022-10-16T08:37:17.486Z,1010.46
2022-10-16T08:38:17.767Z,1010.41
2022-10-16T08:39:18.009Z,1010.44
2022-10-16T08:40:18.333Z,1010.50
2022-10-16T08:41:18.508Z,1010.53
2022-10-16T08:42:18.787Z,1010.44
2022-10-16T08:43:19.061Z,1010.42
2022-10-16T08:44:19.309Z,1010.48
2022-10-16T08:45:19.549Z,1010.49
2022-10-16T08:46:19.810Z,1010.51
2022-10-16T08:47:20.286Z,1010.45
2022-10-16T08:48:20.390Z,1010.42
2022-10-16T08:49:20.657Z,1010.45
2022-10-16T08:50:20.923Z,1010.47
2022-10-16T08:51:21.209Z,1010.46
2022-10-16T08:52:21.468Z,1010.59
2022-10-16T08:53:21.735Z,1010.63
2022-10-16T08:54:22.003Z,1010.60
2022-10-16T08:55:22.241Z,1010.56
2022-10-16T08:56:22.556Z,1010.57
2022-10-16T08:57:24.226Z,1010.54
2022-10-16T08:58:23.234Z,1010.48
2022-10-16T08:59:23.525Z,1010.54
2022-10-16T09:00:23.888Z,1010.52
2022-10-16T09:01:24.126Z,1010.52
2022-10-16T09:02:24.752Z,1010.49
2022-10-16T09:03:24.741Z,1010.47
2022-10-16T09:04:24.987Z,1010.49
2022-10-16T09:05:25.228Z,1010.44
2022-10-16T09:06:25.479Z,1010.47
2022-10-16T09:07:25.790Z,1010.46
2022-10-16T09:08:26.089Z,1010.47
2022-10-16T09:09:26.329Z,1010.45
2022-10-16T09:10:26.633Z,1010.48
2022-10-16T09:11:26.901Z,1010.55
2022-10-16T09:12:27.352Z,1010.55
2022-10-16T09:13:27.489Z,1010.58
2022-10-16T09:14:27.742Z,1010.57
2022-10-16T09:15:27.994Z,1010.61
2022-10-16T09:16:28.321Z,1010.61
2022-10-16T09:17:28.881Z,1010.62
2022-10-16T09:18:31.840Z,1010.53
2022-10-16T09:19:29.213Z,1010.55
2022-10-16T09:20:29.680Z,1010.57
2022-10-16T09:21:29.787Z,1010.57
2022-10-16T09:22:30.036Z,1010.58
2022-10-16T09:23:30.288Z,1010.52
2022-10-16T09:24:30.526Z,1010.55
2022-10-16T09:25:30.907Z,1010.56
2022-10-16T09:26:31.138Z,1010.56
2022-10-16T09:27:31.432Z,1010.50
2022-10-16T09:28:31.817Z,1010.53
2022-10-16T09:29:31.927Z,1010.60
2022-10-16T09:30:32.198Z,1010.62
2022-10-16T09:31:32.490Z,1010.70
2022-10-16T09:32:32.772Z,1010.65
2022-10-16T09:33:33.032Z,1010.66
2022-10-16T09:34:33.307Z,1010.65
2022-10-16T09:35:33.594Z,1010.69
2022-10-16T09:36:33.852Z,1010.67
2022-10-16T09:50:52.686Z,1010.74
2022-10-16T09:51:51.151Z,1010.75
2022-10-16T09:52:51.483Z,1010.82
2022-10-16T09:54:52.152Z,1010.92
2022-10-16T09:55:52.326Z,1010.81
2022-10-16T09:56:52.558Z,1010.83
2022-10-16T09:57:52.741Z,1010.92
2022-10-16T09:58:53.075Z,1010.95
2022-10-16T09:59:53.377Z,1010.93
2022-10-16T10:00:53.701Z,1010.94
2022-10-16T10:01:54.012Z,1010.88
2022-10-16T10:03:54.586Z,1010.79
2022-10-16T10:04:54.956Z,1010.84
2022-10-16T10:05:58.516Z,1010.92
2022-10-16T10:06:56.492Z,1010.92
2022-10-16T10:07:55.712Z,1010.91
2022-10-16T10:08:56.005Z,1010.88
2022-10-16T10:09:56.357Z,1010.90
2022-10-16T10:10:56.654Z,1010.88
2022-10-16T10:11:57.090Z,1010.86
2022-10-16T10:12:57.224Z,1010.88
2022-10-16T10:13:57.525Z,1010.90
2022-10-16T10:14:57.775Z,1010.97
2022-10-16T10:15:58.068Z,1011.01
2022-10-16T10:16:58.310Z,1010.97
2022-10-16T10:17:58.577Z,1010.96
2022-10-16T10:19:03.685Z,1010.98
2022-10-16T10:19:59.199Z,1010.96
2022-10-16T10:20:59.489Z,1010.94
2022-10-16T10:21:59.808Z,1010.92
2022-10-16T10:23:00.081Z,1010.97
2022-10-16T10:24:00.361Z,1010.98
2022-10-16T10:25:01.369Z,1011.02
2022-10-16T10:26:00.861Z,1011.02
2022-10-16T10:27:01.131Z,1011.02
2022-10-16T10:28:01.383Z,1011.01
2022-10-16T10:29:01.696Z,1011.05
2022-10-16T10:30:01.970Z,1010.97
2022-10-16T10:31:02.261Z,1010.99
2022-10-16T10:32:02.522Z,1011.03
2022-10-16T10:33:02.790Z,1011.07
2022-10-16T10:34:03.072Z,1011.05
2022-10-16T10:35:03.337Z,1011.03
2022-10-16T10:36:03.580Z,1010.99
2022-10-16T10:37:03.834Z,1011.07
2022-10-16T10:38:04.106Z,1011.06
2022-10-16T10:39:04.367Z,1011.11
2022-10-16T10:40:04.625Z,1011.10
2022-10-16T10:41:04.867Z,1011.09
2022-10-16T10:42:05.175Z,1011.09
2022-10-16T10:43:05.427Z,1011.07
2022-10-16T10:44:05.728Z,1011.08
2022-10-16T10:45:06.009Z,1011.10
2022-10-16T10:46:06.254Z,1011.17
2022-10-16T10:47:06.510Z,1011.18
2022-10-16T10:48:06.770Z,1011.14
2022-10-16T10:49:07.039Z,1011.21
2022-10-16T10:50:07.290Z,1011.18
2022-10-16T10:51:07.540Z,1011.16
2022-10-16T10:52:07.790Z,1011.15
2022-10-16T10:53:08.039Z,1011.13
2022-10-16T10:54:08.311Z,1011.12
2022-10-16T10:55:08.606Z,1011.08
2022-10-16T10:56:08.871Z,1011.13
2022-10-16T10:57:09.112Z,1011.10
2022-10-16T10:58:09.354Z,1011.07
2022-10-16T10:59:09.624Z,1011.13
2022-10-16T11:00:09.894Z,1011.14
2022-10-16T11:01:10.158Z,1011.12
2022-10-16T11:02:10.423Z,1011.19
2022-10-16T11:03:10.694Z,1011.13
2022-10-16T11:04:11.010Z,1011.15
2022-10-16T11:05:11.276Z,1011.14
2022-10-16T11:06:11.527Z,1011.19
2022-10-16T11:07:11.789Z,1011.17
2022-10-16T11:08:12.048Z,1011.21
2022-10-16T11:09:12.370Z,1011.20
2022-10-16T11:10:12.609Z,1011.21
2022-10-16T11:11:12.888Z,1011.17
2022-10-16T11:12:13.189Z,1011.19
2022-10-16T11:13:13.448Z,1011.24
2022-10-16T11:14:13.777Z,1011.23
2022-10-16T11:15:14.020Z,1011.30
2022-10-16T11:16:16.314Z,1011.34
2022-10-16T11:17:14.531Z,1011.32
2022-10-16T11:18:14.783Z,1011.33
2022-10-16T11:19:15.103Z,1011.41
2022-10-16T11:20:15.410Z,1011.38
2022-10-16T11:21:15.634Z,1011.39
2022-10-16T11:22:15.947Z,1011.37
2022-10-16T11:23:16.226Z,1011.38
2022-10-16T11:24:16.536Z,1011.36
2022-10-16T11:25:16.779Z,1011.36
2022-10-16T11:26:17.086Z,1011.34
2022-10-16T11:27:17.364Z,1011.34
2022-10-16T11:28:17.639Z,1011.27
2022-10-16T11:29:18.011Z,1011.31
2022-10-16T11:30:18.236Z,1011.30
2022-10-16T11:31:18.497Z,1011.28
2022-10-16T11:32:18.769Z,1011.31
2022-10-16T11:33:19.038Z,1011.33
2022-10-16T11:34:19.349Z,1011.31
2022-10-16T11:35:19.611Z,1011.27
2022-10-16T11:36:19.879Z,1011.31
2022-10-16T11:37:20.188Z,1011.30
2022-10-16T11:38:20.519Z,1011.31
2022-10-16T11:39:20.810Z,1011.29
2022-10-16T11:40:21.087Z,1011.31
2022-10-16T11:41:21.343Z,1011.31
2022-10-16T11:42:21.600Z,1011.27
2022-10-16T11:43:21.874Z,1011.34
2022-10-16T11:44:22.130Z,1011.27
2022-10-16T11:45:22.400Z,1011.26
2022-10-16T11:46:22.674Z,1011.30
2022-10-16T11:48:24.149Z,1011.30
2022-10-16T11:49:23.463Z,1011.29
2022-10-16T11:50:23.723Z,1011.27
2022-10-16T11:51:23.992Z,1011.19
2022-10-16T11:52:24.236Z,1011.23
2022-10-16T11:53:24.532Z,1011.22
2022-10-16T11:54:24.776Z,1011.28
2022-10-16T11:55:25.067Z,1011.24
2022-10-16T11:56:25.297Z,1011.22
2022-10-16T11:57:25.982Z,1011.21
2022-10-16T11:58:25.808Z,1011.25
2022-10-16T11:59:26.079Z,1011.23
2022-10-16T12:00:26.337Z,1011.21
2022-10-16T12:01:26.619Z,1011.18
2022-10-16T12:02:27.077Z,1011.24
2022-10-16T12:03:27.183Z,1011.25
2022-10-16T12:04:27.460Z,1011.25
2022-10-16T12:05:27.783Z,1011.23
2022-10-16T12:06:28.045Z,1011.28
2022-10-16T12:07:28.311Z,1011.28
2022-10-16T12:08:28.583Z,1011.29
2022-10-16T12:09:28.860Z,1011.25
2022-10-16T12:10:29.182Z,1011.26
2022-10-16T12:11:29.458Z,1011.33
2022-10-16T12:12:31.738Z,1011.31
2022-10-16T12:13:29.968Z,1011.34
2022-10-16T12:14:30.294Z,1011.32
2022-10-16T12:15:47.370Z,1011.33
2022-10-16T12:16:31.683Z,1011.35
2022-10-16T12:17:31.018Z,1011.34
2022-10-16T12:18:31.279Z,1011.36
2022-10-16T12:19:31.580Z,1011.38
2022-10-16T12:20:31.839Z,1011.28
2022-10-16T12:21:32.090Z,1011.29
2022-10-16T12:22:32.359Z,1011.27
2022-10-16T12:23:32.626Z,1011.36
2022-10-16T12:24:32.919Z,1011.31
2022-10-16T12:25:33.218Z,1011.38
2022-10-16T12:26:33.471Z,1011.37
2022-10-16T12:27:33.781Z,1011.35